Terminal Aerodrome Forecast
Issued by NWS

Current Version | Previous Version | Text Only | Print | Product List | Glossary On
Versions: 1 2 3 4 5 6 7 8 9 10 11 12 13 14 15 16
000
FTUS41 KGYX 221120
TAFAUG
TAF
KAUG 221120Z 2212/2312 28007KT P6SM SCT100
     FM221700 23011G20KT P6SM BKN100
     FM222300 21006KT P6SM SCT050 OVC100=

USA.gov is the U.S. government's official web portal to all federal, state and local government web resources and services.